Terminal Aerodrome Forecast
Issued by NWS

Home | Current Version | Previous Version | Text Only | Print | Product List | Glossary On
Versions: 1 2 3 4 5 6 7 8 9 10 11 12 13 14 15 16 17
188
FTUS42 TJSJ 182320
TAFJBQ
TAF
TJBQ 182320Z 1900/1924 09013KT P6SM FEW030 SCT080
     FM190600 09012KT P6SM SCT060
     FM191300 09018KT P6SM FEW030 SCT060
      AMD NOT SKED 1902/1911=

USA.gov is the U.S. government's official web portal to all federal, state and local government web resources and services.